createdAt,value
2023-05-22T00:01:51.970Z,11.70
2023-05-22T00:04:21.491Z,11.70
2023-05-22T00:06:49.184Z,11.70
2023-05-22T00:09:16.125Z,11.70
2023-05-22T00:11:43.129Z,11.60
2023-05-22T00:14:09.953Z,11.60
2023-05-22T00:16:36.694Z,11.80
2023-05-22T00:19:03.808Z,11.80
2023-05-22T00:21:34.846Z,11.80
2023-05-22T00:24:02.211Z,11.60
2023-05-22T00:26:29.015Z,11.70
2023-05-22T00:28:55.790Z,11.80
2023-05-22T00:31:23.295Z,11.70
2023-05-22T00:33:50.187Z,11.70
2023-05-22T00:36:18.525Z,11.60
2023-05-22T00:38:45.265Z,11.70
2023-05-22T00:41:12.109Z,11.70
2023-05-22T00:43:39.557Z,11.60
2023-05-22T00:46:07.687Z,11.60
2023-05-22T00:48:34.481Z,11.50
2023-05-22T00:51:01.772Z,11.40
2023-05-22T00:53:30.424Z,11.30
2023-05-22T00:55:58.153Z,11.20
2023-05-22T00:58:26.864Z,11.10
2023-05-22T01:00:55.321Z,11.00
2023-05-22T01:03:26.920Z,11.10
2023-05-22T01:05:55.004Z,11.20
2023-05-22T01:08:22.156Z,11.20
2023-05-22T01:10:56.091Z,11.20
2023-05-22T01:13:32.375Z,11.10
2023-05-22T01:16:24.999Z,11.20
2023-05-22T01:19:18.956Z,11.20
2023-05-22T01:22:25.084Z,11.20
2023-05-22T01:25:17.009Z,11.10
2023-05-22T01:28:02.662Z,11.00
2023-05-22T01:31:11.101Z,11.10
2023-05-22T01:33:46.643Z,11.00
2023-05-22T01:36:19.986Z,10.90
2023-05-22T01:38:47.280Z,10.90
2023-05-22T01:41:14.761Z,10.90
2023-05-22T01:43:42.156Z,10.80
2023-05-22T01:46:08.914Z,10.80
2023-05-22T01:48:36.322Z,10.60
2023-05-22T01:51:34.122Z,10.60
2023-05-22T01:54:24.090Z,10.60
2023-05-22T01:57:07.428Z,10.50
2023-05-22T01:59:45.568Z,10.50
2023-05-22T02:02:15.160Z,10.50
2023-05-22T02:04:46.088Z,10.40
2023-05-22T02:07:15.468Z,10.40
2023-05-22T02:09:46.160Z,10.50
2023-05-22T02:12:13.606Z,10.60
2023-05-22T02:14:42.689Z,10.60
2023-05-22T02:17:09.559Z,10.60
2023-05-22T02:19:36.471Z,10.70
2023-05-22T02:22:03.916Z,10.70
2023-05-22T02:24:31.812Z,10.60
2023-05-22T02:26:58.654Z,10.40
2023-05-22T02:29:25.502Z,10.40
2023-05-22T02:31:54.530Z,10.30
2023-05-22T02:34:21.385Z,10.20
2023-05-22T02:36:48.129Z,10.20
2023-05-22T02:39:14.983Z,10.20
2023-05-22T02:41:41.727Z,10.30
2023-05-22T02:44:08.753Z,10.30
2023-05-22T02:46:35.537Z,10.30
2023-05-22T02:49:03.318Z,10.30
2023-05-22T02:51:30.089Z,10.30
2023-05-22T02:53:57.408Z,10.30
2023-05-22T02:56:24.813Z,10.30
2023-05-22T02:58:51.542Z,10.30
2023-05-22T03:01:18.549Z,10.40
2023-05-22T03:03:45.628Z,10.40
2023-05-22T03:06:12.406Z,10.40
2023-05-22T03:08:43.400Z,10.40
2023-05-22T03:11:10.464Z,10.50
2023-05-22T03:13:37.182Z,10.50
2023-05-22T03:16:04.232Z,10.60
2023-05-22T03:18:32.124Z,10.60
2023-05-22T03:20:58.981Z,10.70
2023-05-22T03:23:25.872Z,10.60
2023-05-22T03:25:53.164Z,10.60
2023-05-22T03:28:21.282Z,10.70
2023-05-22T03:30:48.142Z,10.70
2023-05-22T03:33:23.278Z,10.60
2023-05-22T03:35:50.835Z,10.60
2023-05-22T03:38:17.617Z,10.60
2023-05-22T03:40:44.538Z,10.60
2023-05-22T03:43:11.309Z,10.60
2023-05-22T03:45:39.068Z,10.60
2023-05-22T03:48:06.134Z,10.60
2023-05-22T03:50:33.057Z,10.60
2023-05-22T03:52:59.823Z,10.70
2023-05-22T03:55:26.614Z,10.80
2023-05-22T03:57:53.368Z,11.00
2023-05-22T04:00:20.766Z,11.00
2023-05-22T04:02:47.698Z,11.10
2023-05-22T04:05:14.664Z,11.10
2023-05-22T04:07:41.556Z,11.10
2023-05-22T04:10:08.687Z,11.20
2023-05-22T04:12:35.514Z,11.30
2023-05-22T04:15:02.251Z,11.30
2023-05-22T04:17:34.202Z,11.40
2023-05-22T04:20:01.021Z,11.50
2023-05-22T04:22:30.754Z,11.50
2023-05-22T04:24:57.675Z,11.60
2023-05-22T04:27:25.180Z,11.60
2023-05-22T04:29:52.452Z,11.70
2023-05-22T04:32:21.700Z,11.90
2023-05-22T04:34:52.323Z,12.00
2023-05-22T04:37:20.208Z,12.10
2023-05-22T04:39:47.360Z,12.20
2023-05-22T04:42:14.591Z,12.40
2023-05-22T04:44:41.870Z,12.50
2023-05-22T04:47:14.289Z,12.60
2023-05-22T04:49:42.440Z,12.80
2023-05-22T04:52:11.470Z,13.10
2023-05-22T04:54:43.244Z,13.30
2023-05-22T04:57:10.437Z,13.60
2023-05-22T04:59:41.311Z,13.80
2023-05-22T05:02:09.057Z,14.00
2023-05-22T05:04:36.399Z,14.20
2023-05-22T05:07:04.412Z,14.40
2023-05-22T05:09:31.366Z,14.60
2023-05-22T05:11:58.414Z,14.70
2023-05-22T05:14:25.951Z,14.80
2023-05-22T05:16:52.963Z,14.90
2023-05-22T05:19:22.575Z,15.10
2023-05-22T05:21:49.706Z,15.20
2023-05-22T05:24:19.755Z,15.30
2023-05-22T05:26:47.447Z,15.50
2023-05-22T05:29:17.027Z,15.60
2023-05-22T05:32:16.541Z,15.60
2023-05-22T05:34:50.517Z,15.70
2023-05-22T05:37:37.512Z,15.70
2023-05-22T05:40:07.199Z,15.80
2023-05-22T05:42:35.870Z,15.80
2023-05-22T05:45:04.701Z,15.90
2023-05-22T05:47:32.316Z,16.00
2023-05-22T05:49:59.098Z,16.10
2023-05-22T05:52:32.477Z,16.30
2023-05-22T05:55:01.834Z,16.40
2023-05-22T05:57:31.160Z,16.50
2023-05-22T05:59:58.103Z,16.60
2023-05-22T06:02:43.566Z,16.70
2023-05-22T06:05:26.978Z,16.70
2023-05-22T06:08:00.540Z,16.80
2023-05-22T06:10:27.532Z,17.00
2023-05-22T06:13:01.999Z,17.00
2023-05-22T06:15:29.007Z,16.90
2023-05-22T06:17:56.269Z,17.10
2023-05-22T06:20:25.080Z,17.00
2023-05-22T06:22:52.012Z,17.20
2023-05-22T06:25:19.076Z,17.20
2023-05-22T06:27:47.390Z,17.20
2023-05-22T06:30:22.387Z,17.30
2023-05-22T06:32:58.023Z,17.40
2023-05-22T06:35:25.476Z,17.30
2023-05-22T06:37:52.657Z,17.30
2023-05-22T06:40:19.799Z,17.30
2023-05-22T06:42:49.730Z,17.20
2023-05-22T06:45:22.502Z,17.10
2023-05-22T06:48:06.163Z,17.20
2023-05-22T06:50:37.644Z,17.40
2023-05-22T06:53:04.577Z,17.40
2023-05-22T06:55:31.586Z,17.40
2023-05-22T06:58:06.266Z,17.30
2023-05-22T07:00:35.230Z,17.20
2023-05-22T07:03:14.730Z,17.20
2023-05-22T07:06:05.619Z,17.20
2023-05-22T07:08:32.429Z,17.30
2023-05-22T07:11:01.882Z,17.40
2023-05-22T07:13:32.042Z,17.30
2023-05-22T07:15:58.900Z,17.30
2023-05-22T07:18:25.833Z,17.30
2023-05-22T07:20:52.716Z,17.40
2023-05-22T07:23:23.344Z,17.50
2023-05-22T07:25:51.106Z,17.70
2023-05-22T07:28:20.946Z,17.60
2023-05-22T07:30:57.315Z,17.70
2023-05-22T07:33:25.072Z,17.80
2023-05-22T07:35:52.830Z,17.70
2023-05-22T07:38:19.853Z,17.70
2023-05-22T07:40:56.154Z,17.80
2023-05-22T07:43:23.338Z,18.00
2023-05-22T07:45:51.130Z,18.20
2023-05-22T07:48:21.976Z,18.40
2023-05-22T07:50:49.068Z,18.50
2023-05-22T07:53:16.437Z,18.60
2023-05-22T07:55:44.637Z,18.60
2023-05-22T07:58:11.370Z,18.60
2023-05-22T08:00:41.788Z,18.60
2023-05-22T08:03:08.755Z,18.60
2023-05-22T08:05:35.805Z,18.70
2023-05-22T08:08:03.688Z,18.90
2023-05-22T08:10:46.658Z,19.00
2023-05-22T08:13:16.646Z,19.00
2023-05-22T08:15:43.392Z,19.20
2023-05-22T08:18:10.380Z,19.30
2023-05-22T08:20:38.805Z,19.30
2023-05-22T08:23:06.801Z,19.50
2023-05-22T08:25:33.508Z,19.60
2023-05-22T08:28:00.361Z,19.70
2023-05-22T08:30:27.187Z,19.70
2023-05-22T08:32:53.930Z,19.60
2023-05-22T08:35:20.794Z,19.50
2023-05-22T08:37:47.526Z,19.50
2023-05-22T08:40:15.120Z,19.60
2023-05-22T08:42:42.436Z,19.60
2023-05-22T08:45:09.854Z,19.60
2023-05-22T08:47:39.285Z,19.70
2023-05-22T08:50:07.167Z,19.80
2023-05-22T08:52:42.601Z,19.80
2023-05-22T08:55:10.347Z,19.90
2023-05-22T08:57:37.217Z,20.00
2023-05-22T09:00:04.324Z,19.90
2023-05-22T09:02:32.032Z,20.00
2023-05-22T09:04:58.784Z,19.90
2023-05-22T09:07:27.825Z,20.00
2023-05-22T09:09:54.561Z,20.10
2023-05-22T09:12:21.322Z,20.20
2023-05-22T09:14:48.032Z,20.20
2023-05-22T09:17:16.273Z,20.20
2023-05-22T09:19:44.858Z,20.30
2023-05-22T09:22:12.009Z,20.30
2023-05-22T09:24:42.456Z,20.40
2023-05-22T09:27:10.378Z,20.60
2023-05-22T09:29:53.526Z,20.60
2023-05-22T09:32:20.382Z,20.60
2023-05-22T09:34:47.434Z,20.60
2023-05-22T09:37:15.214Z,20.60
2023-05-22T09:39:46.824Z,20.60
2023-05-22T09:42:17.713Z,20.70
2023-05-22T09:44:49.388Z,20.60
2023-05-22T09:47:16.348Z,20.60
2023-05-22T09:49:44.862Z,20.80
2023-05-22T09:52:12.607Z,20.90
2023-05-22T09:54:51.111Z,20.90
2023-05-22T09:57:18.928Z,21.00
2023-05-22T09:59:54.033Z,21.10
2023-05-22T10:02:22.895Z,21.10
2023-05-22T10:04:50.481Z,21.00
2023-05-22T10:07:37.630Z,20.80
2023-05-22T10:10:09.101Z,21.00
2023-05-22T10:12:43.362Z,21.10
2023-05-22T10:15:11.588Z,21.30
2023-05-22T10:17:39.470Z,21.30
2023-05-22T10:20:08.973Z,21.40
2023-05-22T10:22:39.092Z,21.50
2023-05-22T10:25:08.507Z,21.60
2023-05-22T10:27:37.489Z,21.40
2023-05-22T10:30:18.625Z,21.40
2023-05-22T10:33:22.221Z,21.30
2023-05-22T10:35:58.728Z,21.50
2023-05-22T10:38:56.618Z,21.70
2023-05-22T10:41:24.014Z,21.80
2023-05-22T10:43:51.221Z,21.80
2023-05-22T10:46:18.823Z,21.80
2023-05-22T10:48:49.504Z,21.80
2023-05-22T10:51:21.136Z,21.90
2023-05-22T10:53:55.848Z,21.90
2023-05-22T10:56:25.268Z,22.10
2023-05-22T10:58:57.455Z,22.10
2023-05-22T11:01:27.402Z,22.10
2023-05-22T11:04:10.463Z,22.20
2023-05-22T11:06:43.289Z,22.30
2023-05-22T11:09:29.031Z,22.20
2023-05-22T11:12:19.554Z,22.00
2023-05-22T11:15:06.717Z,22.10
2023-05-22T11:17:40.296Z,22.20
2023-05-22T11:20:12.878Z,22.30
2023-05-22T11:22:44.779Z,22.40
2023-05-22T11:25:16.703Z,22.30
2023-05-22T11:27:44.638Z,22.40
2023-05-22T11:30:12.716Z,22.60
2023-05-22T11:32:44.190Z,22.70
2023-05-22T11:35:19.305Z,22.70
2023-05-22T11:37:46.775Z,22.70
2023-05-22T11:40:21.238Z,22.80
2023-05-22T11:42:48.191Z,22.80
2023-05-22T11:45:15.143Z,23.00
2023-05-22T11:47:43.535Z,22.90
2023-05-22T11:50:11.722Z,23.10
2023-05-22T11:52:41.875Z,23.30
2023-05-22T11:55:09.949Z,23.60
2023-05-22T11:57:37.462Z,23.80
2023-05-22T12:00:06.426Z,23.90
2023-05-22T12:02:39.422Z,23.70
2023-05-22T12:05:06.896Z,23.50
2023-05-22T12:07:33.654Z,23.50
2023-05-22T12:10:01.195Z,23.60
2023-05-22T12:12:28.104Z,23.90
2023-05-22T12:14:54.867Z,24.20
2023-05-22T12:17:24.121Z,24.50
2023-05-22T12:19:50.910Z,24.50
2023-05-22T12:22:17.642Z,24.30
2023-05-22T12:24:48.153Z,24.60
2023-05-22T12:27:15.199Z,24.90
2023-05-22T12:29:42.681Z,25.10
2023-05-22T12:32:11.062Z,25.30
2023-05-22T12:34:47.763Z,25.00
2023-05-22T12:37:22.670Z,25.00
2023-05-22T12:39:59.787Z,24.90
2023-05-22T12:42:27.449Z,24.90
2023-05-22T12:45:01.201Z,25.10
2023-05-22T12:47:28.100Z,25.50
2023-05-22T12:49:54.917Z,25.50
2023-05-22T12:52:21.637Z,25.30
2023-05-22T12:54:48.346Z,25.00
2023-05-22T12:57:16.754Z,24.90
2023-05-22T12:59:43.663Z,25.10
2023-05-22T13:02:10.447Z,25.20
2023-05-22T13:04:37.318Z,25.30
2023-05-22T13:07:04.148Z,25.60
2023-05-22T13:09:30.958Z,25.50
2023-05-22T13:11:57.702Z,25.30
2023-05-22T13:14:24.460Z,25.80
2023-05-22T13:16:51.278Z,25.70
2023-05-22T13:19:18.116Z,25.30
2023-05-22T13:21:45.210Z,24.90
2023-05-22T13:24:11.981Z,25.00
2023-05-22T13:26:38.688Z,25.10
2023-05-22T13:29:05.655Z,25.20
2023-05-22T13:31:37.560Z,25.10
2023-05-22T13:34:05.154Z,25.20
2023-05-22T13:36:32.392Z,25.60
2023-05-22T13:38:59.158Z,26.10
2023-05-22T13:41:26.083Z,26.30
2023-05-22T13:43:52.976Z,26.50
2023-05-22T13:46:21.316Z,26.80
2023-05-22T13:48:48.101Z,26.90
2023-05-22T13:51:14.850Z,26.40
2023-05-22T13:53:41.573Z,26.00
2023-05-22T13:56:08.323Z,25.90
2023-05-22T13:58:35.048Z,25.70
2023-05-22T14:01:01.781Z,25.50
2023-05-22T14:03:28.704Z,25.70
2023-05-22T14:05:55.516Z,25.90
2023-05-22T14:08:22.325Z,26.10
2023-05-22T14:10:49.022Z,26.10
2023-05-22T14:13:15.858Z,25.70
2023-05-22T14:15:49.493Z,25.50
2023-05-22T14:18:16.611Z,25.30
2023-05-22T14:20:44.477Z,25.00
2023-05-22T14:23:12.749Z,25.00
2023-05-22T14:25:45.428Z,25.00
2023-05-22T14:28:12.873Z,24.80
2023-05-22T14:30:39.767Z,24.80
2023-05-22T14:33:07.222Z,24.50
2023-05-22T14:35:34.449Z,24.40
2023-05-22T14:38:01.689Z,24.50
2023-05-22T14:40:28.494Z,24.50
2023-05-22T14:42:55.593Z,24.70
2023-05-22T14:45:22.517Z,24.90
2023-05-22T14:47:49.359Z,24.90
2023-05-22T14:50:19.894Z,24.80
2023-05-22T14:52:47.991Z,24.90
2023-05-22T14:55:15.320Z,24.90
2023-05-22T14:57:42.094Z,24.60
2023-05-22T15:00:10.243Z,24.30
2023-05-22T15:02:37.281Z,24.00
2023-05-22T15:05:04.540Z,23.50
2023-05-22T15:07:42.999Z,23.50
2023-05-22T15:10:12.360Z,23.40
2023-05-22T15:12:39.174Z,23.30
2023-05-22T15:15:06.363Z,23.10
2023-05-22T15:17:33.129Z,23.20
2023-05-22T15:19:59.978Z,23.30
2023-05-22T15:22:26.677Z,23.30
2023-05-22T15:25:05.526Z,23.40
2023-05-22T15:27:33.351Z,23.60
2023-05-22T15:30:00.136Z,23.60
2023-05-22T15:32:26.995Z,23.60
2023-05-22T15:34:53.725Z,23.80
2023-05-22T15:37:20.551Z,24.00
2023-05-22T15:39:47.295Z,24.10
2023-05-22T15:42:14.016Z,24.10
2023-05-22T15:44:40.927Z,23.70
2023-05-22T15:47:07.641Z,23.50
2023-05-22T15:49:34.379Z,23.50
2023-05-22T15:52:02.658Z,23.60
2023-05-22T15:54:29.396Z,23.90
2023-05-22T15:56:56.215Z,24.10
2023-05-22T15:59:22.933Z,24.20
2023-05-22T16:01:49.695Z,24.20
2023-05-22T16:04:16.751Z,24.20
2023-05-22T16:06:43.479Z,24.00
2023-05-22T16:09:10.902Z,23.80
2023-05-22T16:11:37.830Z,23.60
2023-05-22T16:14:04.817Z,23.40
2023-05-22T16:16:31.652Z,23.30
2023-05-22T16:18:58.474Z,23.10
2023-05-22T16:21:25.370Z,23.00
2023-05-22T16:23:52.290Z,22.80
2023-05-22T16:26:19.298Z,22.70
2023-05-22T16:28:46.078Z,22.70
2023-05-22T16:31:13.874Z,22.60
2023-05-22T16:33:40.896Z,22.50
2023-05-22T16:36:07.763Z,22.40
2023-05-22T16:38:34.494Z,22.20
2023-05-22T16:41:01.366Z,22.20
2023-05-22T16:43:28.079Z,22.10
2023-05-22T16:45:54.850Z,22.10
2023-05-22T16:48:21.592Z,22.10
2023-05-22T16:50:48.399Z,22.00
2023-05-22T16:53:18.257Z,22.00
2023-05-22T16:55:45.055Z,21.80
2023-05-22T16:58:12.740Z,21.50
2023-05-22T17:00:40.171Z,21.50
2023-05-22T17:03:08.398Z,21.40
2023-05-22T17:05:36.701Z,21.40
2023-05-22T17:08:03.565Z,21.50
2023-05-22T17:10:30.360Z,21.40
2023-05-22T17:12:57.146Z,21.30
2023-05-22T17:15:23.898Z,20.60
2023-05-22T17:17:51.107Z,20.10
2023-05-22T17:20:18.868Z,19.70
2023-05-22T17:22:45.697Z,19.60
2023-05-22T17:25:13.459Z,19.50
2023-05-22T17:27:40.362Z,19.30
2023-05-22T17:30:07.763Z,19.10
2023-05-22T17:32:35.407Z,19.00
2023-05-22T17:35:02.311Z,18.90
2023-05-22T17:37:29.038Z,18.80
2023-05-22T17:39:55.812Z,18.70
2023-05-22T17:42:22.915Z,18.60
2023-05-22T17:44:49.764Z,18.50
2023-05-22T17:47:16.590Z,18.30
2023-05-22T17:49:43.426Z,18.20
2023-05-22T17:52:11.041Z,18.30
2023-05-22T17:54:37.781Z,18.50
2023-05-22T17:57:04.645Z,18.60
2023-05-22T17:59:32.978Z,18.70
2023-05-22T18:01:59.793Z,18.80
2023-05-22T18:04:26.576Z,18.80
2023-05-22T18:06:53.336Z,18.80
2023-05-22T18:09:20.103Z,18.80
2023-05-22T18:11:46.826Z,18.60
2023-05-22T18:14:13.546Z,18.50
2023-05-22T18:16:40.360Z,18.40
2023-05-22T18:19:07.223Z,18.30
2023-05-22T18:21:34.039Z,18.20
2023-05-22T18:24:00.790Z,18.10
2023-05-22T18:26:27.585Z,18.00
2023-05-22T18:28:54.320Z,17.90
2023-05-22T18:31:22.164Z,17.90
2023-05-22T18:33:49.028Z,17.80
2023-05-22T18:36:16.185Z,17.80
2023-05-22T18:38:43.134Z,17.80
2023-05-22T18:41:09.994Z,17.80
2023-05-22T18:43:36.774Z,17.70
2023-05-22T18:46:04.161Z,17.60
2023-05-22T18:48:31.056Z,17.50
2023-05-22T18:50:58.836Z,17.50
2023-05-22T18:53:26.100Z,17.40
2023-05-22T18:55:54.030Z,17.40
2023-05-22T18:58:21.093Z,17.40
2023-05-22T19:00:48.344Z,17.40
2023-05-22T19:03:15.124Z,17.40
2023-05-22T19:05:41.996Z,17.40
2023-05-22T19:08:09.541Z,17.50
2023-05-22T19:10:36.274Z,17.40
2023-05-22T19:13:03.830Z,17.30
2023-05-22T19:15:30.625Z,17.10
2023-05-22T19:17:57.569Z,17.00
2023-05-22T19:20:24.449Z,17.00
2023-05-22T19:22:51.547Z,17.00
2023-05-22T19:25:18.628Z,16.90
2023-05-22T19:27:45.840Z,16.80
2023-05-22T19:30:15.211Z,16.60
2023-05-22T19:32:43.613Z,16.60
2023-05-22T19:35:11.271Z,16.60
2023-05-22T19:37:38.127Z,16.60
2023-05-22T19:40:06.008Z,16.70
2023-05-22T19:42:32.992Z,16.60
2023-05-22T19:44:59.836Z,16.50
2023-05-22T19:47:27.173Z,16.60
2023-05-22T19:49:54.028Z,16.50
2023-05-22T19:52:20.912Z,16.40
2023-05-22T19:54:47.662Z,16.40
2023-05-22T19:57:14.387Z,16.50
2023-05-22T19:59:41.150Z,16.40
2023-05-22T20:02:08.148Z,16.50
2023-05-22T20:04:35.121Z,16.50
2023-05-22T20:07:03.695Z,16.60
2023-05-22T20:09:30.428Z,16.70
2023-05-22T20:11:57.270Z,16.60
2023-05-22T20:14:24.081Z,16.60
2023-05-22T20:16:51.422Z,16.60
2023-05-22T20:19:18.299Z,16.70
2023-05-22T20:21:45.423Z,16.60
2023-05-22T20:24:20.925Z,16.70
2023-05-22T20:26:48.038Z,16.80
2023-05-22T20:29:14.944Z,16.80
2023-05-22T20:31:42.072Z,16.90
2023-05-22T20:34:09.551Z,16.90
2023-05-22T20:36:36.553Z,17.00
2023-05-22T20:39:03.744Z,17.00
2023-05-22T20:41:30.469Z,17.00
2023-05-22T20:43:58.508Z,17.00
2023-05-22T20:46:26.567Z,16.90
2023-05-22T20:48:53.683Z,16.90
2023-05-22T20:51:21.244Z,16.80
2023-05-22T20:53:49.605Z,16.70
2023-05-22T20:56:16.437Z,16.70
2023-05-22T20:58:43.187Z,16.70
2023-05-22T21:01:09.983Z,16.60
2023-05-22T21:03:37.162Z,16.40
2023-05-22T21:06:03.954Z,16.30
2023-05-22T21:08:30.695Z,16.10
2023-05-22T21:10:57.417Z,16.00
2023-05-22T21:13:24.144Z,16.10
2023-05-22T21:15:51.241Z,16.10
2023-05-22T21:18:19.714Z,16.00
2023-05-22T21:20:46.639Z,16.00
2023-05-22T21:23:13.396Z,16.10
2023-05-22T21:25:40.142Z,16.10
2023-05-22T21:28:07.806Z,16.10
2023-05-22T21:30:34.645Z,16.20
2023-05-22T21:33:01.488Z,16.20
2023-05-22T21:35:28.329Z,16.10
2023-05-22T21:37:55.052Z,16.00
2023-05-22T21:40:21.820Z,16.00
2023-05-22T21:42:48.620Z,16.00
2023-05-22T21:45:15.473Z,15.80
2023-05-22T21:47:42.266Z,15.70
2023-05-22T21:50:09.450Z,15.50
2023-05-22T21:52:36.278Z,15.50
2023-05-22T21:55:03.061Z,15.50
2023-05-22T21:57:29.938Z,15.50
2023-05-22T21:59:56.680Z,15.50
2023-05-22T22:02:23.457Z,15.50
2023-05-22T22:04:50.238Z,15.50
2023-05-22T22:07:17.051Z,15.40
2023-05-22T22:09:43.924Z,15.40
2023-05-22T22:12:10.644Z,15.30
2023-05-22T22:14:37.411Z,15.10
2023-05-22T22:17:05.685Z,14.90
2023-05-22T22:19:34.263Z,14.70
2023-05-22T22:22:01.705Z,14.70
2023-05-22T22:24:29.362Z,14.60
2023-05-22T22:26:56.639Z,14.50
2023-05-22T22:29:23.386Z,14.50
2023-05-22T22:31:50.207Z,14.60
2023-05-22T22:34:17.096Z,14.70
2023-05-22T22:36:43.949Z,14.70
2023-05-22T22:39:11.138Z,14.70
2023-05-22T22:41:37.900Z,14.70
2023-05-22T22:44:04.668Z,14.80
2023-05-22T22:46:32.162Z,14.80
2023-05-22T22:49:01.629Z,14.90
2023-05-22T22:51:31.594Z,14.90
2023-05-22T22:53:58.440Z,15.00
2023-05-22T22:56:29.201Z,14.90
2023-05-22T22:58:57.201Z,14.90
2023-05-22T23:01:24.433Z,14.90
2023-05-22T23:03:51.532Z,14.80
2023-05-22T23:06:19.319Z,14.80
2023-05-22T23:08:46.133Z,14.80
2023-05-22T23:11:12.911Z,14.70
2023-05-22T23:13:41.229Z,14.80
2023-05-22T23:16:08.274Z,14.80
2023-05-22T23:18:35.277Z,14.90
2023-05-22T23:21:02.005Z,14.80
2023-05-22T23:23:28.726Z,14.80
2023-05-22T23:25:58.069Z,14.70
2023-05-22T23:28:25.766Z,14.70
2023-05-22T23:30:52.856Z,14.80
2023-05-22T23:33:19.784Z,14.70
2023-05-22T23:35:46.569Z,14.60
2023-05-22T23:38:13.323Z,14.50
2023-05-22T23:40:40.063Z,14.50
2023-05-22T23:43:06.869Z,14.50
2023-05-22T23:45:33.611Z,14.60
2023-05-22T23:48:00.443Z,14.50
2023-05-22T23:50:27.185Z,14.40
2023-05-22T23:52:54.128Z,14.30
2023-05-22T23:55:20.952Z,14.30
2023-05-22T23:57:47.698Z,14.20
